Terminal Aerodrome Forecast
Issued by NWS Cleveland, OH

Home | Current Version | Previous Version | Graphics & Text | Print | Product List | Glossary On
Versions: 1 2 3 4 5 6 7 8 9 10 11 12 13 14 15 16 17 18
000
FTUS41 KCLE 241100
TAFCAK
TAF
KCAK 241126Z 2412/2512 18018G28KT P6SM VCSH SCT015 OVC025
      TEMPO 2412/2416 OVC015
     FM241800 22028G40KT P6SM OVC035
      TEMPO 2418/2420 3SM -SHRA
     FM250000 24022G32KT P6SM OVC025
     FM250800 24015G25KT P6SM OVC035=

USA.gov is the U.S. government's official web portal to all federal, state and local government web resources and services.